Durango, CO (81303)

11:59 AM MDT on September 23, 2014 (GMT -0600)
Meadowood Farms | Change Station
CLOSE
Current Station
Personal Weather Station
Location: Durango, CO
Elevation: 6913 ft
Nearby Weather Stations

Elev 6913 ft 37.21 °N, 107.79 °W | Updated 3 seconds ago

Clear
Clear
73.4 °F
Feels Like 77 °F
N
3.4
Wind Variable Wind from South
Gusts 7.6 mph

Today
High -- | Low -- °F
--% Chance of Precip.
Yesterday
High -- | Low -- °F
Precip. -- in
7:00 AM 7:06 PM
Waning Crescent, 0% visible
Pressure 30.15 in
Visibility 10.0 miles
Clouds Clear
Heat Index 77 °F
Dew Point 52 °F
Humidity 47%
Rainfall 0.00 in
Snow Depth 0 in , 0 in , 0 in
UV 6 out of 12
Pollen 5.70 out of 12
Air Quality Not available.
Flu Activity Not available.
METAR KDRO 231653Z AUTO 11003KT 10SM CLR 18/10 A3034 RMK AO2 SLP210 T01830100

More Conditions Fewer Conditions

Pressure 30.15 in
Visibility 10.0 miles
Clouds Clear
Heat Index 77 °F
Dew Point 52 °F
Humidity 47%
Rainfall 0.00 in
Snow Depth 0 in , 0 in , 0 in
UV 6 out of 12
Pollen 5.70 out of 12
Air Quality Not available.
Flu Activity Not available.
METAR KDRO 231653Z AUTO 11003KT 10SM CLR 18/10 A3034 RMK AO2 SLP210 T01830100

More Conditions Fewer Conditions

10-Day Weather Forecast

Almanac

Astronomy

Sep. 23, 2014 Rise Set
Actual Time 7:00 AM MDT 7:06 PM MDT
Civil Twilight 6:34 AM MDT 7:32 PM MDT
Nautical Twilight 6:03 AM MDT 8:03 PM MDT
Astronomical Twilight 5:33 AM MDT 8:33 PM MDT
Moon 6:27 AM MDT 6:47 PM MDT
Length of Visible Light 12h 58m
Length of Day
12h 06m
Tomorrow will be 2m 22s shorter.
Waning Crescent, 0% of the Moon is Illuminated
Today
Waning Crescent
Sep 24
New
Oct 1
First Quarter
Oct 8
Full
Oct 15
Last Quarter

Today's Extremes

State Highs State Lows

Community

WunderPhotos

Upload Photos

1,755,758 photos uploaded!

WunderBlogs® & News

Nearby

Snow Depth

Station Depth Elevation
Kiln 0 in 9600 ft
Phantom Valley 0 in 9030 ft
Brumley 0 in 10600 ft
Willow Creek Pass 0 in 9540 ft
Overland Reservoir 0 in 9880 ft

Earthquake Activity

City Distance Mag. Time & Date
No recent earthquake activity has been reported nearby.
Minimum magnitude displayed is 2.5.

Coastal Water Temperatures

Place Temperature
No Stations Reporting

Nearby Weather Stations